Time;durP1;ratioP1;P1;durP2;ratioP2;P2;SDS_P1;SDS_P2;PMS_P1;PMS_P2;Temp;Humidity;BMP_temperature;BMP_pressure;BME280_temperature;BME280_humidity;BME280_pressure;Samples;Min_cycle;Max_cycle;Signal;HPM_P1;HPM_P2
2022/01/01 00:00:34;;;;;;;239.70;56.65;;;0.70;99.90;;;;;;4999638;28;20538;-91
2022/01/01 00:03:00;;;;;;;226.32;57.67;;;0.70;99.90;;;;;;4999473;28;20384;-91
2022/01/01 00:05:27;;;;;;;213.18;56.22;;;0.70;99.90;;;;;;5016432;28;20030;-91
2022/01/01 00:07:53;;;;;;;242.00;56.97;;;0.70;99.90;;;;;;4999344;28;20022;-91
2022/01/01 00:10:20;;;;;;;206.23;54.95;;;0.70;99.90;;;;;;4999208;28;20026;-91
2022/01/01 00:12:47;;;;;;;216.43;54.50;;;0.70;99.90;;;;;;4999519;28;20025;-92
2022/01/01 00:15:14;;;;;;;209.07;53.00;;;0.70;99.90;;;;;;4999660;28;20022;-92
2022/01/01 00:17:40;;;;;;;209.65;52.55;;;0.70;99.90;;;;;;4999505;28;20365;-91
2022/01/01 00:20:09;;;;;;;222.38;51.78;;;0.70;99.90;;;;;;4999791;28;20072;-93
2022/01/01 00:22:35;;;;;;;207.25;52.38;;;0.70;99.90;;;;;;4998971;28;20018;-91
2022/01/01 00:25:01;;;;;;;221.00;54.03;;;0.70;99.90;;;;;;4999090;28;20109;-93
2022/01/01 00:27:27;;;;;;;211.43;52.45;;;0.70;99.90;;;;;;4998901;28;20109;-93
2022/01/01 00:29:53;;;;;;;196.25;51.25;;;0.70;99.90;;;;;;4998766;28;20062;-92
2022/01/01 00:32:18;;;;;;;216.93;60.55;;;0.80;99.90;;;;;;4999000;28;20030;-92
2022/01/01 00:34:44;;;;;;;243.00;61.00;;;0.80;99.90;;;;;;4999167;28;20022;-92
2022/01/01 00:37:10;;;;;;;206.38;53.20;;;0.80;99.90;;;;;;4999890;28;20156;-92
2022/01/01 00:39:35;;;;;;;215.80;59.92;;;0.80;99.90;;;;;;4998844;28;20048;-93
2022/01/01 00:42:01;;;;;;;196.40;50.30;;;0.70;99.90;;;;;;4998118;28;20049;-92
2022/01/01 00:44:30;;;;;;;215.18;54.95;;;0.80;99.90;;;;;;4998849;28;20026;-92
2022/01/01 00:46:56;;;;;;;163.73;48.00;;;0.80;99.90;;;;;;4998712;28;20026;-92
2022/01/01 00:49:22;;;;;;;181.57;50.58;;;0.80;99.90;;;;;;4998768;28;20018;-91
2022/01/01 00:51:48;;;;;;;175.73;49.50;;;0.80;99.90;;;;;;4998977;28;20375;-91
2022/01/01 00:54:13;;;;;;;175.27;47.17;;;0.80;99.90;;;;;;4998504;28;20018;-91
2022/01/01 00:56:39;;;;;;;148.80;45.53;;;0.80;99.90;;;;;;4998449;28;20056;-90
2022/01/01 00:59:05;;;;;;;161.98;44.25;;;0.80;99.90;;;;;;4998576;28;20030;-91
2022/01/01 01:01:30;;;;;;;167.70;44.70;;;0.80;99.90;;;;;;4998569;28;20037;-91
2022/01/01 01:03:56;;;;;;;147.57;42.28;;;0.80;99.90;;;;;;4998283;28;20057;-90
2022/01/01 01:06:21;;;;;;;127.45;37.60;;;0.80;99.90;;;;;;4998271;28;20052;-90
2022/01/01 01:08:47;;;;;;;157.60;42.50;;;0.80;99.90;;;;;;4998048;28;20026;-90
2022/01/01 01:11:13;;;;;;;144.00;39.95;;;0.80;99.90;;;;;;4997433;28;20032;-90
2022/01/01 01:13:40;;;;;;;142.10;40.17;;;0.80;99.90;;;;;;4997940;28;20539;-90
2022/01/01 01:16:06;;;;;;;141.48;37.28;;;0.80;99.90;;;;;;4998382;28;20099;-90
2022/01/01 01:18:31;;;;;;;130.60;37.75;;;0.80;99.90;;;;;;4998427;28;20357;-90
2022/01/01 01:20:57;;;;;;;116.05;37.03;;;0.80;99.90;;;;;;4998288;28;20037;-89
2022/01/01 01:23:23;;;;;;;147.48;41.58;;;0.90;99.90;;;;;;4998052;28;20037;-90
2022/01/01 01:25:48;;;;;;;106.75;34.47;;;0.90;99.90;;;;;;4997955;28;20072;-91
2022/01/01 01:28:14;;;;;;;127.38;38.45;;;0.90;99.90;;;;;;4997923;28;20065;-90
2022/01/01 01:30:41;;;;;;;147.80;43.92;;;0.90;99.90;;;;;;4997992;28;20026;-89
2022/01/01 01:33:08;;;;;;;164.90;58.13;;;0.90;99.90;;;;;;4997997;28;20531;-90
2022/01/01 01:35:35;;;;;;;158.88;45.95;;;0.90;99.90;;;;;;5015387;28;20126;-90
2022/01/01 01:38:01;;;;;;;188.70;50.65;;;0.90;99.90;;;;;;4997934;28;20033;-89
2022/01/01 01:40:27;;;;;;;120.07;38.08;;;0.90;99.90;;;;;;5015151;28;20038;-90
2022/01/01 01:42:52;;;;;;;140.13;41.53;;;0.90;99.90;;;;;;4997471;28;20121;-90
2022/01/01 01:45:21;;;;;;;135.45;41.67;;;1.00;99.90;;;;;;4997804;28;20045;-89
2022/01/01 01:47:48;;;;;;;112.40;37.03;;;0.90;99.90;;;;;;4997126;28;20382;-90
2022/01/01 01:50:15;;;;;;;113.53;34.53;;;1.00;99.90;;;;;;4997678;28;20025;-89
2022/01/01 01:52:46;;;;;;;108.68;33.83;;;1.00;99.90;;;;;;4997667;28;20084;-90
2022/01/01 01:55:12;;;;;;;119.03;37.33;;;1.00;99.90;;;;;;4997626;28;20059;-90
2022/01/01 01:57:40;;;;;;;130.45;37.53;;;1.00;99.90;;;;;;5014937;28;20026;-89
2022/01/01 02:03:09;;;;;;;136.52;38.47;;;1.00;99.90;;;;;;4984941;28;20034;-89
2022/01/01 02:05:35;;;;;;;139.45;38.42;;;1.00;99.90;;;;;;4997171;28;20040;-89
2022/01/01 02:08:03;;;;;;;128.50;39.08;;;1.00;99.90;;;;;;4997314;28;20112;-90
2022/01/01 02:10:30;;;;;;;128.88;41.05;;;1.00;99.90;;;;;;4997778;28;20036;-90
2022/01/01 02:12:57;;;;;;;125.75;44.25;;;1.00;99.90;;;;;;4997563;28;20479;-90
2022/01/01 02:15:47;;;;;;;132.80;43.22;;;1.00;99.90;;;;;;4997219;28;20022;-89
2022/01/01 02:18:13;;;;;;;;;;;1.10;99.90;;;;;;5015174;28;20014;-90
2022/01/01 02:20:39;;;;;;;152.80;51.88;;;1.00;99.90;;;;;;5014400;28;19920;-89
2022/01/01 02:23:05;;;;;;;149.55;50.83;;;1.00;99.90;;;;;;4985486;28;20030;-89
2022/01/01 02:25:31;;;;;;;152.82;51.67;;;1.10;99.90;;;;;;4993867;28;20113;-90
2022/01/01 02:27:57;;;;;;;136.68;47.08;;;1.10;99.90;;;;;;4993975;28;20125;-91
2022/01/01 02:30:23;;;;;;;91.78;34.10;;;1.10;99.90;;;;;;4994850;28;20089;-90
2022/01/01 02:32:49;;;;;;;114.40;36.20;;;1.10;99.90;;;;;;4993973;28;20034;-89
2022/01/01 02:35:17;;;;;;;117.20;37.80;;;1.10;99.90;;;;;;4993857;28;20466;-90
2022/01/01 02:37:43;;;;;;;108.18;34.30;;;1.10;99.90;;;;;;5004550;28;20026;-90
2022/01/01 02:40:10;;;;;;;92.75;29.83;;;1.10;99.90;;;;;;4996553;28;20033;-90
2022/01/01 02:42:39;;;;;;;96.45;33.70;;;1.20;99.90;;;;;;5014575;28;20029;-90
2022/01/01 02:45:09;;;;;;;108.20;31.73;;;1.20;99.90;;;;;;4997099;28;20049;-90
2022/01/01 02:47:35;;;;;;;114.03;33.10;;;1.20;99.90;;;;;;4996907;28;20026;-90
2022/01/01 02:50:02;;;;;;;96.05;32.20;;;1.20;99.90;;;;;;4996918;28;20034;-90
2022/01/01 02:52:27;;;;;;;107.10;34.13;;;1.20;99.90;;;;;;4996872;28;20033;-90
2022/01/01 02:54:53;;;;;;;107.55;32.45;;;1.20;99.90;;;;;;5014256;28;20026;-90
2022/01/01 02:57:19;;;;;;;95.78;30.60;;;1.20;99.90;;;;;;5014396;28;20113;-90
2022/01/01 02:59:44;;;;;;;103.63;31.95;;;1.30;99.90;;;;;;4996860;28;20072;-90
2022/01/01 03:02:10;;;;;;;80.72;28.10;;;1.30;99.90;;;;;;4996991;28;20026;-89
2022/01/01 03:04:36;;;;;;;73.45;26.90;;;1.30;99.90;;;;;;5014529;28;20373;-90
2022/01/01 03:07:02;;;;;;;95.03;28.63;;;1.30;99.90;;;;;;4996798;28;20185;-90
2022/01/01 03:09:34;;;;;;;87.88;30.20;;;1.30;99.90;;;;;;5014230;28;20144;-90
2022/01/01 03:12:02;;;;;;;78.20;25.73;;;1.30;99.90;;;;;;4996867;28;20022;-89
2022/01/01 03:14:27;;;;;;;70.93;26.00;;;1.30;99.90;;;;;;4996757;28;20480;-90
2022/01/01 03:16:55;;;;;;;88.13;26.80;;;1.30;99.90;;;;;;4996846;28;20061;-90
2022/01/01 03:19:21;;;;;;;82.50;25.50;;;1.30;99.90;;;;;;5014296;28;20036;-90
2022/01/01 03:21:47;;;;;;;72.63;24.15;;;1.40;99.90;;;;;;4996889;28;20030;-90
2022/01/01 03:24:12;;;;;;;69.38;24.15;;;1.40;99.90;;;;;;4996515;28;20022;-90
2022/01/01 03:26:38;;;;;;;80.90;25.05;;;1.40;99.90;;;;;;5014532;28;20057;-89
2022/01/01 03:29:04;;;;;;;77.30;23.85;;;1.40;99.90;;;;;;4996608;28;20022;-90
2022/01/01 03:31:30;;;;;;;85.78;23.95;;;1.40;99.90;;;;;;4996565;28;20022;-89
2022/01/01 03:33:58;;;;;;;64.32;22.67;;;1.40;99.90;;;;;;4997806;28;20024;-90
2022/01/01 03:36:24;;;;;;;59.67;22.00;;;1.50;99.90;;;;;;5000206;28;20028;-90
2022/01/01 03:38:50;;;;;;;71.85;23.40;;;1.50;99.90;;;;;;5000083;28;20117;-91
2022/01/01 03:41:15;;;;;;;93.57;24.50;;;1.40;99.90;;;;;;4999842;28;20495;-91
2022/01/01 03:43:41;;;;;;;59.60;22.38;;;1.40;99.90;;;;;;5000066;28;20358;-90
2022/01/01 03:46:07;;;;;;;62.63;22.20;;;1.50;99.90;;;;;;4999880;28;20029;-91
2022/01/01 03:48:32;;;;;;;69.60;22.58;;;1.50;99.90;;;;;;4999878;28;20376;-90
2022/01/01 03:50:58;;;;;;;74.13;22.02;;;1.50;99.90;;;;;;5016933;28;20030;-90
2022/01/01 03:53:25;;;;;;;75.57;22.10;;;1.50;99.90;;;;;;5017489;28;20026;-90
2022/01/01 03:55:51;;;;;;;55.40;20.42;;;1.50;99.90;;;;;;4999810;28;20053;-91
2022/01/01 03:58:16;;;;;;;53.28;18.30;;;1.50;99.90;;;;;;5017252;28;20050;-91
2022/01/01 04:00:42;;;;;;;60.63;19.98;;;1.50;99.90;;;;;;4999675;28;20380;-91
2022/01/01 04:03:16;;;;;;;57.08;20.85;;;1.50;99.90;;;;;;4999705;28;20026;-91
2022/01/01 04:05:41;;;;;;;56.00;21.25;;;1.60;99.90;;;;;;4998971;28;20117;-92
2022/01/01 04:08:08;;;;;;;53.03;20.35;;;1.60;99.90;;;;;;4999701;28;20108;-91
2022/01/01 04:10:35;;;;;;;75.47;27.23;;;1.60;99.90;;;;;;5017172;28;20049;-91
2022/01/01 04:13:02;;;;;;;67.57;21.25;;;1.70;99.90;;;;;;5016863;28;20018;-91
2022/01/01 04:15:29;;;;;;;52.38;20.15;;;1.70;99.90;;;;;;5016824;28;20057;-91
2022/01/01 04:17:58;;;;;;;51.60;19.33;;;1.70;99.90;;;;;;4999405;28;20028;-91
2022/01/01 04:20:25;;;;;;;46.40;18.90;;;1.70;99.90;;;;;;4998933;28;20362;-91
2022/01/01 04:22:55;;;;;;;49.13;17.90;;;1.70;99.90;;;;;;4999320;28;20022;-91
2022/01/01 04:25:22;;;;;;;61.90;21.73;;;1.70;99.90;;;;;;4999197;28;20029;-91
2022/01/01 04:27:49;;;;;;;60.15;22.35;;;1.70;99.90;;;;;;4999099;28;20057;-91
2022/01/01 04:30:15;;;;;;;57.53;24.52;;;1.80;99.90;;;;;;4999157;28;20049;-91
2022/01/01 04:32:41;;;;;;;79.60;26.02;;;1.70;99.90;;;;;;4999151;28;20053;-90
2022/01/01 04:35:07;;;;;;;68.55;25.70;;;1.80;99.90;;;;;;5009432;28;20030;-91
2022/01/01 04:37:33;;;;;;;73.50;26.00;;;1.70;99.90;;;;;;4999000;28;20026;-91
2022/01/01 04:39:59;;;;;;;69.57;24.40;;;1.80;99.90;;;;;;4998655;28;20096;-90
2022/01/01 04:42:26;;;;;;;76.13;24.08;;;1.70;99.90;;;;;;5016391;28;20069;-91
2022/01/01 04:44:52;;;;;;;60.28;21.63;;;1.80;99.90;;;;;;4998900;28;20064;-91
2022/01/01 04:47:18;;;;;;;52.30;21.30;;;1.80;99.90;;;;;;4998559;28;20032;-91
2022/01/01 04:49:44;;;;;;;55.22;20.52;;;1.80;99.90;;;;;;4998458;28;20030;-90
2022/01/01 04:52:10;;;;;;;73.30;22.98;;;1.90;99.90;;;;;;5016200;28;20045;-89
2022/01/01 04:54:39;;;;;;;78.70;24.67;;;1.90;99.90;;;;;;4998658;28;20029;-90
2022/01/01 04:57:06;;;;;;;63.95;22.08;;;1.90;99.90;;;;;;4998831;28;20132;-91
2022/01/01 04:59:32;;;;;;;70.30;21.90;;;2.00;99.90;;;;;;4998733;28;20065;-90
2022/01/01 05:01:58;;;;;;;64.13;22.42;;;2.00;99.90;;;;;;4998629;28;20026;-91
2022/01/01 05:04:24;;;;;;;59.88;20.65;;;2.00;99.90;;;;;;4998238;28;20044;-90
2022/01/01 05:06:51;;;;;;;65.68;20.88;;;2.00;99.90;;;;;;4998400;28;20038;-91
2022/01/01 05:09:17;;;;;;;52.97;20.17;;;2.10;99.90;;;;;;4998485;28;20109;-91
2022/01/01 05:11:43;;;;;;;55.67;18.85;;;2.00;99.90;;;;;;4998416;28;20116;-90
2022/01/01 05:14:09;;;;;;;53.47;18.55;;;2.10;99.90;;;;;;4998350;28;20049;-90
2022/01/01 05:16:35;;;;;;;57.20;20.02;;;2.10;99.90;;;;;;4998433;28;20140;-89
2022/01/01 05:19:01;;;;;;;72.72;21.58;;;2.20;99.90;;;;;;4998084;28;20109;-90
2022/01/01 05:21:32;;;;;;;55.80;19.73;;;2.20;99.90;;;;;;4998278;28;20061;-88
2022/01/01 05:23:59;;;;;;;59.83;20.88;;;2.30;99.90;;;;;;4998663;28;20033;-90
2022/01/01 05:26:24;;;;;;;56.95;20.27;;;2.30;99.90;;;;;;4998087;28;20030;-89
2022/01/01 05:28:50;;;;;;;58.88;19.83;;;2.30;99.90;;;;;;4998042;28;20091;-88
2022/01/01 05:31:19;;;;;;;70.30;22.42;;;2.40;99.90;;;;;;4998099;28;20025;-90
2022/01/01 05:33:49;;;;;;;80.25;21.88;;;2.40;99.90;;;;;;4997736;28;20018;-90
2022/01/01 05:36:15;;;;;;;59.78;20.05;;;2.40;99.90;;;;;;5015476;28;20491;-90
2022/01/01 05:38:42;;;;;;;73.28;22.90;;;2.40;99.90;;;;;;4997956;28;20487;-89
2022/01/01 05:41:08;;;;;;;70.35;20.90;;;2.50;99.90;;;;;;4997899;28;20446;-89
2022/01/01 05:43:34;;;;;;;57.53;19.90;;;2.50;99.90;;;;;;4997792;28;20113;-88
2022/01/01 05:46:00;;;;;;;80.35;25.70;;;2.60;99.90;;;;;;5015435;28;20036;-88
2022/01/01 05:48:26;;;;;;;88.07;25.52;;;2.60;99.90;;;;;;4997562;28;20030;-89
2022/01/01 05:50:51;;;;;;;73.50;23.02;;;2.60;99.90;;;;;;5015162;28;20022;-88
2022/01/01 05:53:18;;;;;;;85.03;24.10;;;2.60;99.90;;;;;;4997657;28;20487;-89
2022/01/01 05:55:44;;;;;;;87.30;24.63;;;2.70;99.90;;;;;;5014852;28;20424;-88
2022/01/01 05:58:10;;;;;;;69.18;23.75;;;2.70;99.90;;;;;;4997434;28;20018;-89
2022/01/01 06:00:36;;;;;;;130.52;29.08;;;2.70;99.90;;;;;;5015195;28;20080;-89
2022/01/01 06:03:02;;;;;;;80.18;24.92;;;2.80;99.90;;;;;;4997356;28;20030;-88
2022/01/01 06:05:28;;;;;;;85.72;25.25;;;2.80;99.90;;;;;;5014971;28;20427;-89
2022/01/01 06:07:55;;;;;;;86.80;27.23;;;2.80;99.90;;;;;;4997491;28;20022;-89
2022/01/01 06:10:23;;;;;;;82.85;25.58;;;2.80;99.90;;;;;;4997362;28;20048;-87
2022/01/01 06:12:49;;;;;;;80.45;27.33;;;2.80;99.90;;;;;;4997446;28;20085;-89
2022/01/01 06:15:15;;;;;;;91.53;29.33;;;2.90;99.90;;;;;;4996994;28;20192;-88
2022/01/01 06:17:41;;;;;;;97.95;29.25;;;2.90;99.90;;;;;;4997131;28;20435;-88
2022/01/01 06:20:07;;;;;;;72.50;25.00;;;2.90;99.90;;;;;;4997307;28;20029;-89
2022/01/01 06:22:32;;;;;;;78.07;26.30;;;3.00;99.90;;;;;;4997107;28;20092;-88
2022/01/01 06:24:58;;;;;;;105.55;30.35;;;3.10;99.90;;;;;;5006048;28;20026;-89
2022/01/01 06:27:24;;;;;;;97.10;27.70;;;3.10;99.90;;;;;;5034667;28;20357;-88
2022/01/01 06:29:50;;;;;;;80.40;25.40;;;3.10;99.90;;;;;;5009809;28;20018;-88
2022/01/01 06:32:16;;;;;;;95.50;28.27;;;3.20;99.90;;;;;;4996810;28;20106;-88
2022/01/01 06:34:42;;;;;;;84.07;26.27;;;3.20;99.90;;;;;;5014517;28;20022;-88
2022/01/01 06:37:08;;;;;;;88.22;30.40;;;3.20;99.90;;;;;;4997042;28;20026;-88
2022/01/01 06:39:34;;;;;;;88.65;29.40;;;3.30;99.90;;;;;;4996819;28;20033;-88
2022/01/01 06:41:59;;;;;;;126.10;31.60;;;3.40;99.90;;;;;;5014222;28;20084;-88
2022/01/01 06:44:25;;;;;;;107.05;31.08;;;3.40;99.90;;;;;;5014336;28;20022;-88
2022/01/01 06:46:51;;;;;;;89.63;27.83;;;3.50;99.90;;;;;;4996949;28;20029;-88
2022/01/01 06:49:17;;;;;;;90.47;28.60;;;3.60;99.90;;;;;;4996711;28;20029;-88
2022/01/01 06:51:42;;;;;;;90.45;28.75;;;3.70;99.90;;;;;;4996937;28;20049;-88
2022/01/01 06:54:08;;;;;;;80.32;26.27;;;3.80;99.90;;;;;;4997588;28;20049;-88
2022/01/01 06:56:34;;;;;;;76.50;25.60;;;3.90;99.90;;;;;;4996953;28;20526;-89
2022/01/01 06:59:00;;;;;;;92.38;28.88;;;4.00;99.90;;;;;;4996925;28;20060;-88
2022/01/01 07:01:25;;;;;;;96.53;29.77;;;4.10;99.90;;;;;;5014395;28;20026;-89
2022/01/01 07:03:51;;;;;;;95.45;29.60;;;4.20;99.90;;;;;;4996013;28;20477;-89
2022/01/01 07:06:17;;;;;;;87.22;27.75;;;4.20;99.90;;;;;;4996852;28;20029;-90
2022/01/01 07:08:42;;;;;;;83.70;29.13;;;4.20;99.90;;;;;;4998389;28;20377;-89
2022/01/01 07:11:08;;;;;;;86.55;28.08;;;4.20;99.90;;;;;;5000890;28;20018;-88
2022/01/01 07:13:34;;;;;;;84.60;29.80;;;4.30;99.90;;;;;;5000500;28;20033;-87
2022/01/01 07:15:59;;;;;;;108.85;32.25;;;4.30;99.90;;;;;;5000631;28;20022;-89
2022/01/01 07:18:25;;;;;;;93.65;31.23;;;4.30;99.90;;;;;;5016979;28;20033;-88
2022/01/01 07:20:51;;;;;;;79.57;28.70;;;4.40;99.90;;;;;;5000413;28;20064;-89
2022/01/01 07:23:17;;;;;;;95.90;32.67;;;4.50;99.90;;;;;;5000239;28;20034;-89
2022/01/01 07:25:42;;;;;;;107.57;32.65;;;4.40;99.90;;;;;;5000277;28;20037;-89
2022/01/01 07:28:10;;;;;;;91.85;30.60;;;4.40;99.90;;;;;;5000287;28;20026;-90
2022/01/01 07:30:35;;;;;;;104.25;32.72;;;4.50;99.90;;;;;;5000207;28;20032;-89
2022/01/01 07:33:01;;;;;;;94.85;32.40;;;4.60;99.90;;;;;;5017765;28;20026;-89
2022/01/01 07:35:27;;;;;;;93.22;30.50;;;4.50;99.90;;;;;;4993665;28;20057;-89
2022/01/01 07:37:53;;;;;;;109.38;31.17;;;4.50;99.90;;;;;;4999759;28;20026;-89
2022/01/01 07:40:19;;;;;;;110.32;32.45;;;4.40;99.90;;;;;;4999658;28;20499;-89
2022/01/01 07:42:45;;;;;;;85.45;30.27;;;4.40;99.90;;;;;;4999778;28;20022;-89
2022/01/01 07:45:12;;;;;;;93.38;30.50;;;4.40;99.90;;;;;;4999809;28;20498;-89
2022/01/01 07:47:38;;;;;;;90.93;31.10;;;4.50;99.90;;;;;;5017035;28;20030;-89
2022/01/01 07:50:06;;;;;;;96.47;32.38;;;4.50;99.90;;;;;;5016108;28;20033;-90
2022/01/01 07:52:32;;;;;;;88.57;31.25;;;4.60;99.90;;;;;;4999895;28;20022;-89
2022/01/01 07:54:58;;;;;;;89.60;31.80;;;4.60;99.90;;;;;;4999674;28;20029;-89
2022/01/01 07:57:23;;;;;;;121.82;33.08;;;4.70;99.90;;;;;;4999692;28;20030;-90
2022/01/01 07:59:49;;;;;;;78.72;29.95;;;4.70;99.90;;;;;;5000394;28;20030;-89
2022/01/01 08:02:15;;;;;;;89.22;31.73;;;4.80;99.90;;;;;;4999421;28;20396;-89
2022/01/01 08:04:40;;;;;;;83.55;29.73;;;4.80;99.90;;;;;;4999348;28;20026;-89
2022/01/01 08:07:06;;;;;;;88.57;29.67;;;4.80;99.90;;;;;;4999384;28;20491;-90
2022/01/01 08:09:47;;;;;;;80.38;29.88;;;4.80;99.90;;;;;;4987121;28;20446;-88
2022/01/01 08:12:13;;;;;;;84.63;30.08;;;4.90;99.90;;;;;;4998052;28;20030;-89
2022/01/01 08:14:39;;;;;;;93.43;31.75;;;4.90;99.90;;;;;;4998210;28;20473;-89
2022/01/01 13:34:12;;;;;;;26.27;13.20;;;4.40;99.90;;;;;;5112093;27;20370;-91
2022/01/01 13:36:39;;;;;;;23.17;12.50;;;4.50;99.90;;;;;;5111136;28;20028;-93
2022/01/01 13:39:18;;;;;;;23.17;12.82;;;4.50;99.90;;;;;;5111090;28;20042;-91
2022/01/01 13:41:46;;;;;;;23.38;13.98;;;4.50;99.90;;;;;;5104400;28;20024;-89
2022/01/01 13:44:17;;;;;;;20.30;11.68;;;4.50;99.90;;;;;;5109771;28;20119;-90
2022/01/01 13:46:43;;;;;;;17.42;9.93;;;4.50;99.90;;;;;;5110945;28;20027;-90
2022/01/01 13:49:12;;;;;;;20.52;11.73;;;4.50;99.90;;;;;;5127986;28;20024;-90
2022/01/01 13:51:37;;;;;;;17.45;10.75;;;4.50;99.90;;;;;;5110820;28;20031;-90
2022/01/01 13:54:09;;;;;;;16.98;10.50;;;4.60;99.90;;;;;;5110515;28;20024;-90
2022/01/01 13:56:36;;;;;;;20.65;10.80;;;4.60;99.90;;;;;;5110485;28;20110;-90
2022/01/01 13:59:04;;;;;;;20.92;11.90;;;4.60;99.90;;;;;;5109941;28;20033;-90
2022/01/01 14:01:32;;;;;;;14.77;8.55;;;4.60;99.90;;;;;;5110743;28;20115;-90
2022/01/01 14:03:58;;;;;;;16.48;9.57;;;4.60;99.90;;;;;;5110766;28;20027;-90
2022/01/01 14:06:26;;;;;;;17.52;9.68;;;4.60;99.90;;;;;;5127727;28;20035;-90
2022/01/01 14:09:06;;;;;;;15.77;10.15;;;4.60;99.90;;;;;;5127630;28;20024;-91
2022/01/01 14:11:36;;;;;;;29.67;16.33;;;4.60;99.90;;;;;;5110449;28;20024;-91
2022/01/01 14:14:13;;;;;;;49.63;25.02;;;4.60;99.90;;;;;;5110032;28;20024;-91
2022/01/01 14:16:44;;;;;;;18.35;12.20;;;4.60;99.90;;;;;;5109998;28;20027;-89
2022/01/01 14:19:21;;;;;;;39.97;23.30;;;4.70;99.90;;;;;;5111153;28;20107;-89
2022/01/01 14:21:51;;;;;;;20.17;12.60;;;4.70;99.90;;;;;;5110079;28;20081;-90
2022/01/01 14:24:19;;;;;;;8.70;7.03;;;4.70;99.90;;;;;;5109965;28;20114;-90
2022/01/01 14:26:47;;;;;;;10.60;7.53;;;4.60;99.90;;;;;;5110148;28;20040;-89
2022/01/01 14:29:15;;;;;;;11.35;6.72;;;4.70;99.90;;;;;;5110163;28;20019;-90
2022/01/01 14:31:42;;;;;;;17.23;10.88;;;4.70;99.90;;;;;;5109735;28;20430;-90
2022/01/01 14:34:16;;;;;;;20.17;14.18;;;4.70;99.90;;;;;;5109534;28;20478;-89
2022/01/01 14:36:49;;;;;;;12.98;8.73;;;4.70;99.90;;;;;;5111098;28;20070;-89
2022/01/01 14:39:16;;;;;;;27.13;13.98;;;4.60;99.90;;;;;;5110070;28;20107;-89
2022/01/01 14:41:43;;;;;;;9.90;7.00;;;4.60;99.90;;;;;;5110054;28;20015;-89
2022/01/01 14:44:09;;;;;;;17.67;11.20;;;4.50;99.90;;;;;;5121034;28;20070;-89
2022/01/01 14:46:50;;;;;;;15.38;10.52;;;4.50;99.90;;;;;;5096210;28;20484;-90
2022/01/01 14:49:30;;;;;;;15.35;11.75;;;4.50;99.90;;;;;;5096157;28;20023;-89
2022/01/01 14:52:19;;;;;;;29.20;22.75;;;4.50;99.90;;;;;;5096511;28;20028;-89
2022/01/01 14:54:50;;;;;;;18.25;15.27;;;4.50;99.90;;;;;;5092437;28;20032;-89
2022/01/01 14:57:42;;;;;;;14.50;11.20;;;4.50;99.90;;;;;;5086733;28;20020;-89
2022/01/01 15:00:11;;;;;;;19.83;15.55;;;4.50;99.90;;;;;;5095909;28;20327;-90
2022/01/01 15:02:38;;;;;;;16.58;13.50;;;4.40;99.90;;;;;;5096329;28;20032;-89
2022/01/01 15:05:05;;;;;;;12.30;9.40;;;4.40;99.90;;;;;;5095849;28;20028;-90
2022/01/01 15:07:33;;;;;;;12.80;7.78;;;4.40;99.90;;;;;;5112805;28;20024;-89
2022/01/01 15:10:00;;;;;;;10.95;7.30;;;4.40;99.90;;;;;;5113400;28;20111;-89
2022/01/01 15:12:27;;;;;;;11.35;7.25;;;4.40;99.90;;;;;;5112798;28;20024;-90
2022/01/01 15:14:53;;;;;;;10.35;8.45;;;4.40;99.90;;;;;;5096911;28;20462;-89
2022/01/01 15:17:20;;;;;;;10.07;6.75;;;4.50;99.90;;;;;;5096041;28;20024;-90
2022/01/01 15:19:47;;;;;;;11.25;7.57;;;4.50;99.90;;;;;;5095404;28;20028;-90
2022/01/01 15:22:30;;;;;;;17.13;11.55;;;4.50;99.90;;;;;;5112643;28;20028;-89
2022/01/01 15:24:59;;;;;;;29.75;18.17;;;4.50;99.90;;;;;;5095410;28;20024;-90
2022/01/01 15:27:27;;;;;;;14.40;8.77;;;4.60;99.90;;;;;;5096568;28;20028;-90
2022/01/01 15:37:41;;;;;;;11.88;9.02;;;4.70;99.90;;;;;;5106043;28;20023;-90
2022/01/01 15:40:14;;;;;;;9.88;6.57;;;4.60;99.90;;;;;;5109185;28;20059;-89
2022/01/01 15:42:42;;;;;;;11.77;7.47;;;4.60;99.90;;;;;;5107735;28;20052;-90
2022/01/01 15:45:09;;;;;;;14.20;9.20;;;4.70;99.90;;;;;;5094961;28;20028;-89
2022/01/01 15:47:34;;;;;;;17.13;11.80;;;4.60;99.90;;;;;;5095070;28;20023;-89
2022/01/01 15:50:03;;;;;;;9.88;7.85;;;4.60;99.90;;;;;;5094815;28;20032;-89
2022/01/01 15:52:29;;;;;;;13.57;10.27;;;4.70;99.90;;;;;;5107375;28;20021;-89
2022/01/01 15:54:56;;;;;;;14.45;10.38;;;4.70;99.90;;;;;;5094754;28;20485;-89
2022/01/01 15:57:30;;;;;;;15.23;11.23;;;4.70;99.90;;;;;;5093905;28;20046;-89
2022/01/01 16:00:09;;;;;;;13.60;10.20;;;4.70;99.90;;;;;;5094965;28;20051;-89
2022/01/01 16:02:45;;;;;;;9.10;6.47;;;4.70;99.90;;;;;;5094823;28;20481;-88
2022/01/01 16:05:46;;;;;;;7.95;6.47;;;4.80;99.90;;;;;;5094496;28;20040;-89
2022/01/01 16:08:33;;;;;;;12.52;8.93;;;4.70;99.90;;;;;;5086112;28;20046;-89
2022/01/01 16:11:02;;;;;;;14.43;10.80;;;4.60;99.90;;;;;;5111318;28;20058;-89
2022/01/01 16:13:42;;;;;;;63.08;40.80;;;4.50;99.90;;;;;;5094540;28;20485;-90
2022/01/01 16:16:09;;;;;;;64.20;45.42;;;4.50;99.90;;;;;;5094798;28;20027;-90
2022/01/01 16:18:46;;;;;;;18.83;14.00;;;4.50;99.90;;;;;;5094393;28;20401;-89
2022/01/01 16:21:15;;;;;;;10.77;9.13;;;4.40;99.90;;;;;;5094460;28;20385;-89
2022/01/01 16:26:27;;;;;;;9.57;7.60;;;4.50;99.90;;;;;;5075177;28;20562;-89
2022/01/01 16:28:53;;;;;;;101.18;62.47;;;4.50;99.90;;;;;;5073909;28;20062;-89
2022/01/01 16:31:21;;;;;;;72.43;41.42;;;4.50;99.90;;;;;;5087513;28;20114;-88
2022/01/01 16:33:50;;;;;;;35.83;19.30;;;4.50;99.90;;;;;;5093769;28;20097;-88
2022/01/01 16:36:24;;;;;;;72.82;34.75;;;4.60;99.90;;;;;;5093892;28;20073;-89
2022/01/01 16:38:50;;;;;;;71.90;41.30;;;4.60;99.90;;;;;;5073775;28;20029;-88
2022/01/01 16:41:37;;;;;;;71.82;46.58;;;4.50;99.90;;;;;;5090469;28;20020;-88
2022/01/01 16:44:32;;;;;;;12.38;8.23;;;4.60;99.90;;;;;;5093974;28;20028;-89
2022/01/01 16:47:15;;;;;;;12.63;7.03;;;4.50;99.90;;;;;;5096451;28;20035;-89
2022/01/01 16:49:47;;;;;;;12.40;8.30;;;4.50;99.90;;;;;;5079010;28;20043;-89
2022/01/01 16:52:29;;;;;;;11.65;7.50;;;4.40;99.90;;;;;;5081678;28;20055;-89
2022/01/01 16:55:02;;;;;;;11.10;6.60;;;4.50;99.90;;;;;;5110448;28;20047;-88
2022/01/01 16:57:34;;;;;;;8.32;6.22;;;4.60;99.90;;;;;;5110999;28;20471;-89
2022/01/01 17:00:06;;;;;;;7.22;5.05;;;4.60;99.90;;;;;;5094745;28;20012;-88
2022/01/01 17:02:35;;;;;;;9.00;6.13;;;4.60;99.90;;;;;;5110633;28;20024;-88
2022/01/01 17:05:09;;;;;;;7.05;5.47;;;4.60;99.90;;;;;;5094252;28;20369;-89
2022/01/01 17:07:37;;;;;;;7.60;5.72;;;4.60;99.90;;;;;;5093436;28;20469;-89
2022/01/01 17:10:05;;;;;;;6.65;5.30;;;4.50;99.90;;;;;;5094782;28;20055;-89
2022/01/01 17:12:32;;;;;;;9.77;5.90;;;4.60;99.90;;;;;;5093553;28;20021;-89
2022/01/01 17:15:01;;;;;;;8.63;5.93;;;4.60;99.90;;;;;;5093527;28;20033;-89
2022/01/01 17:18:17;;;;;;;9.38;6.90;;;4.60;99.90;;;;;;5093512;28;20050;-89
2022/01/01 17:20:50;;;;;;;10.35;6.47;;;4.60;99.90;;;;;;5060338;28;20107;-89
2022/01/01 17:23:44;;;;;;;12.23;6.88;;;4.60;99.90;;;;;;5110443;28;20490;-88
2022/01/01 17:26:10;;;;;;;9.27;6.35;;;4.60;99.90;;;;;;5110446;28;20130;-88
2022/01/01 17:29:05;;;;;;;8.95;6.50;;;4.60;99.90;;;;;;5092997;28;20032;-89
2022/01/01 17:31:31;;;;;;;10.95;7.68;;;4.60;99.90;;;;;;5095978;28;20035;-89
2022/01/01 17:34:23;;;;;;;14.13;9.00;;;4.50;99.90;;;;;;5110833;28;20055;-88
2022/01/01 17:42:17;;;;;;;29.63;18.02;;;4.60;99.90;;;;;;5080532;28;20078;-89
2022/01/01 17:44:44;;;;;;;17.10;11.40;;;4.60;99.90;;;;;;5093258;28;20020;-88
2022/01/01 17:47:18;;;;;;;13.05;9.20;;;4.60;99.90;;;;;;5093052;28;20047;-88
2022/01/01 17:49:46;;;;;;;14.80;9.68;;;4.60;99.90;;;;;;5093815;28;20021;-89
2022/01/01 17:52:14;;;;;;;16.77;10.82;;;4.60;99.90;;;;;;5093293;28;20115;-88
2022/01/01 17:54:41;;;;;;;11.48;8.00;;;4.60;99.90;;;;;;5103518;28;20085;-89
2022/01/01 17:57:08;;;;;;;13.40;9.13;;;4.50;99.90;;;;;;5093058;28;20107;-89
2022/01/01 17:59:35;;;;;;;12.32;8.75;;;4.50;99.90;;;;;;5093578;28;20515;-89
2022/01/01 18:02:02;;;;;;;13.98;9.73;;;4.40;99.90;;;;;;5092914;28;20024;-89
2022/01/01 18:04:28;;;;;;;16.60;10.52;;;4.40;99.90;;;;;;5093118;28;20053;-89
2022/01/01 18:06:56;;;;;;;23.42;16.15;;;4.30;99.90;;;;;;5092924;28;20020;-88
2022/01/01 18:09:27;;;;;;;28.27;19.65;;;4.30;99.90;;;;;;5092991;28;20020;-87
2022/01/01 18:11:56;;;;;;;17.40;11.50;;;4.20;99.90;;;;;;5092833;28;20489;-88
2022/01/01 18:14:40;;;;;;;14.57;10.63;;;4.20;99.90;;;;;;5092975;28;20109;-88
2022/01/01 18:17:06;;;;;;;16.65;10.82;;;4.20;99.90;;;;;;5093803;28;20019;-88
2022/01/01 18:19:33;;;;;;;14.27;10.45;;;4.20;99.90;;;;;;5094495;28;20024;-88